Time;durP1;ratioP1;P1;durP2;ratioP2;P2;SDS_P1;SDS_P2;PMS_P1;PMS_P2;Temp;Humidity;BMP_temperature;BMP_pressure;BME280_temperature;BME280_humidity;BME280_pressure;Samples;Min_cycle;Max_cycle;Signal;HPM_P1;HPM_P2
2022/11/06 00:00:37;;;;;;;15.38;6.30;;;;;;;8.42;84.77;101208.41;5072467;28;20091;-61
2022/11/06 00:03:04;;;;;;;18.23;7.13;;;;;;;8.35;84.91;101205.41;5069283;28;20425;-61
2022/11/06 00:08:27;;;;;;;21.08;6.70;;;;;;;8.42;84.80;101205.75;5070323;28;20046;-62
2022/11/06 00:10:54;;;;;;;19.02;6.43;;;;;;;8.39;85.05;101206.00;5054504;28;20413;-62
2022/11/06 00:13:21;;;;;;;18.70;6.53;;;;;;;8.32;84.69;101208.31;5067588;28;20040;-62
2022/11/06 00:15:48;;;;;;;16.73;6.78;;;;;;;8.36;85.27;101196.50;5073845;28;20452;-61
2022/11/06 00:18:14;;;;;;;15.82;6.43;;;;;;;8.37;85.04;101198.19;5067743;28;20040;-61
2022/11/06 00:20:41;;;;;;;17.92;6.50;;;;;;;8.30;85.43;101194.38;5073458;28;20033;-62
2022/11/06 00:23:07;;;;;;;16.35;6.50;;;;;;;8.29;85.66;101200.63;5067678;28;20102;-61
2022/11/06 00:25:38;;;;;;;26.40;8.48;;;;;;;8.15;86.03;101200.94;5073708;28;20048;-61
2022/11/06 00:28:06;;;;;;;17.60;6.53;;;;;;;8.12;86.37;101195.91;5051818;28;20037;-61
2022/11/06 00:30:33;;;;;;;16.83;5.93;;;;;;;8.14;86.18;101208.03;5068304;28;20048;-61
2022/11/06 00:32:59;;;;;;;17.88;6.40;;;;;;;8.29;85.64;101205.91;5073218;28;20091;-61
2022/11/06 00:35:26;;;;;;;25.92;6.32;;;;;;;8.17;85.60;101191.94;5068986;28;20693;-62
2022/11/06 00:37:53;;;;;;;16.52;6.38;;;;;;;8.25;85.78;101189.47;5072144;28;20045;-62
2022/11/06 00:40:20;;;;;;;19.15;6.43;;;;;;;8.15;86.26;101190.38;5068580;28;20247;-62
2022/11/06 00:42:46;;;;;;;16.02;7.00;;;;;;;8.23;85.82;101190.56;5073438;28;20485;-62
2022/11/06 00:45:13;;;;;;;16.05;6.55;;;;;;;8.15;85.71;101182.44;5100958;28;20032;-61
2022/11/06 00:47:39;;;;;;;18.48;7.10;;;;;;;8.06;87.26;101184.88;5069915;28;20047;-61
2022/11/06 00:50:07;;;;;;;24.40;7.88;;;;;;;8.11;86.82;101184.50;5072189;28;20118;-62
2022/11/06 00:52:34;;;;;;;19.50;7.63;;;;;;;8.01;87.22;101184.44;5068626;28;20041;-62
2022/11/06 00:55:01;;;;;;;22.30;7.80;;;;;;;8.12;86.66;101182.72;5073274;28;20040;-62
2022/11/06 00:57:28;;;;;;;18.88;7.15;;;;;;;8.01;87.15;101184.44;5050714;28;20236;-61
2022/11/06 00:59:55;;;;;;;23.08;7.80;;;;;;;8.03;87.32;101186.94;5071881;28;20136;-61
2022/11/06 01:02:21;;;;;;;21.58;7.35;;;;;;;8.04;87.44;101183.31;5068342;28;20156;-62
2022/11/06 01:04:48;;;;;;;19.35;8.75;;;;;;;7.98;87.65;101176.75;5069169;28;20082;-62
2022/11/06 01:07:15;;;;;;;21.77;8.43;;;;;;;8.01;87.76;101176.50;5105013;28;20044;-61
2022/11/06 01:09:42;;;;;;;20.92;7.90;;;;;;;8.03;88.04;101176.38;5068172;28;20044;-62
2022/11/06 01:12:08;;;;;;;20.60;8.27;;;;;;;7.95;88.14;101174.38;5071864;28;20037;-62
2022/11/06 01:14:40;;;;;;;16.00;8.10;;;;;;;7.91;88.17;101169.44;5067182;28;20041;-62
2022/11/06 01:17:07;;;;;;;19.10;7.80;;;;;;;7.92;88.22;101174.63;5073100;28;20048;-62
2022/11/06 01:19:34;;;;;;;18.40;8.05;;;;;;;7.90;88.67;101175.72;5064897;28;20048;-62
2022/11/06 01:22:01;;;;;;;16.60;7.82;;;;;;;7.94;88.01;101174.50;5105089;28;20076;-62
2022/11/06 01:24:28;;;;;;;17.77;7.90;;;;;;;7.94;88.38;101171.84;5068163;28;20037;-62
2022/11/06 01:26:56;;;;;;;18.73;8.18;;;;;;;8.01;88.11;101179.13;5072800;28;20041;-62
2022/11/06 01:29:43;;;;;;;18.60;7.47;;;;;;;8.01;88.04;101178.31;5067212;28;20472;-62
2022/11/06 01:32:11;;;;;;;27.55;9.20;;;;;;;8.02;87.89;101174.69;5054616;28;20055;-62
2022/11/06 01:34:37;;;;;;;18.80;7.50;;;;;;;7.88;88.32;101173.19;5067115;28;20037;-61
2022/11/06 01:37:04;;;;;;;21.50;7.53;;;;;;;7.92;87.89;101174.63;5069248;28;20053;-62
2022/11/06 01:39:31;;;;;;;18.98;7.55;;;;;;;7.94;87.79;101167.41;4941430;28;20659;-62
2022/11/06 01:41:58;;;;;;;18.83;7.40;;;;;;;7.97;87.68;101161.88;5068213;28;20094;-62
2022/11/06 01:47:24;;;;;;;19.65;7.07;;;;;;;7.87;88.14;101158.31;5106123;27;20387;-62
2022/11/06 01:49:58;;;;;;;17.15;7.00;;;;;;;7.90;88.33;101152.78;5110700;28;20062;-61
2022/11/06 01:52:28;;;;;;;18.67;6.95;;;;;;;7.90;88.26;101146.66;5105377;28;20054;-63
2022/11/06 01:55:01;;;;;;;25.35;7.20;;;;;;;7.91;88.09;101149.16;5106225;28;20116;-61
2022/11/06 01:57:28;;;;;;;16.67;6.53;;;;;;;7.87;88.46;101131.88;5110904;28;20055;-61
2022/11/06 01:59:55;;;;;;;21.23;7.70;;;;;;;7.87;88.23;101140.63;5087928;28;20067;-61
2022/11/06 02:02:22;;;;;;;21.52;7.38;;;;;;;7.88;88.54;101144.13;5110393;28;20131;-61
2022/11/06 02:04:49;;;;;;;21.20;6.57;;;;;;;7.85;88.18;101147.03;5104525;28;20048;-61
2022/11/06 02:07:17;;;;;;;17.77;6.30;;;;;;;7.85;88.63;101147.03;5110447;28;20036;-61
2022/11/06 02:09:44;;;;;;;19.27;7.10;;;;;;;7.90;87.89;101133.44;5102884;28;20056;-61
2022/11/06 02:12:26;;;;;;;15.75;6.43;;;;;;;7.88;88.00;101130.94;5110062;28;20097;-61
2022/11/06 02:18:20;;;;;;;17.45;7.15;;;;;;;7.89;88.11;101137.88;5110462;27;20383;-62
2022/11/06 02:21:27;;;;;;;17.33;6.35;;;;;;;7.84;87.79;101135.63;5106221;28;20044;-61
2022/11/06 02:24:34;;;;;;;16.75;6.60;;;;;;;7.83;88.46;101133.09;5107892;28;20039;-62
2022/11/06 02:27:23;;;;;;;18.17;6.72;;;;;;;7.82;88.52;101136.69;5107522;28;20126;-62
2022/11/06 02:29:59;;;;;;;21.58;6.10;;;;;;;7.78;88.54;101133.47;5110448;28;20043;-61
2022/11/06 02:32:34;;;;;;;20.38;6.70;;;;;;;7.71;88.92;101145.50;5108281;28;20044;-62
2022/11/06 02:35:09;;;;;;;18.17;6.80;;;;;;;7.77;89.16;101136.28;5106552;28;20039;-62
2022/11/06 02:37:38;;;;;;;24.05;7.15;;;;;;;7.81;88.83;101140.31;5110834;28;20040;-61
2022/11/06 02:40:08;;;;;;;21.58;6.43;;;;;;;7.86;88.56;101119.66;4974965;28;20052;-62
2022/11/06 02:42:38;;;;;;;23.02;6.50;;;;;;;7.92;88.60;101120.94;5089039;28;20382;-63
2022/11/06 02:45:09;;;;;;;16.00;6.50;;;;;;;7.88;88.38;101125.66;5109163;28;20054;-63
2022/11/06 02:47:38;;;;;;;19.23;6.00;;;;;;;7.87;88.05;101124.78;5105889;28;20042;-63
2022/11/06 02:50:12;;;;;;;17.70;6.18;;;;;;;7.91;88.05;101116.63;5110211;28;20537;-63
2022/11/06 02:52:48;;;;;;;16.65;5.82;;;;;;;7.93;87.92;101107.63;5105860;28;20181;-63
2022/11/06 02:55:26;;;;;;;15.13;5.43;;;;;;;7.84;88.28;101108.34;5109026;28;20050;-63
2022/11/06 02:57:59;;;;;;;16.52;5.90;;;;;;;7.81;87.89;101106.00;5102175;28;20123;-63
2022/11/06 03:00:27;;;;;;;18.08;6.07;;;;;;;7.83;87.12;101102.25;5110315;28;20396;-63
2022/11/06 03:03:07;;;;;;;13.18;5.47;;;;;;;7.87;87.27;101110.75;5105222;28;20109;-63
2022/11/06 03:05:41;;;;;;;15.25;5.90;;;;;;;7.78;87.31;101104.41;5109132;28;20389;-63
2022/11/06 03:08:15;;;;;;;16.17;5.40;;;;;;;7.78;87.95;101101.78;5105944;28;20044;-63
2022/11/06 03:10:51;;;;;;;14.65;5.60;;;;;;;7.74;87.66;101092.44;5109874;28;20447;-63
2022/11/06 03:13:26;;;;;;;17.02;5.03;;;;;;;7.72;87.71;101096.19;5101766;28;20066;-63
2022/11/06 03:16:04;;;;;;;13.82;5.30;;;;;;;7.67;87.95;101088.63;5109388;28;20066;-63
2022/11/06 03:18:45;;;;;;;18.77;5.30;;;;;;;7.71;87.73;101095.34;5105174;28;20451;-63
2022/11/06 03:21:27;;;;;;;20.30;5.53;;;;;;;7.74;88.02;101084.53;5087911;28;20528;-63
2022/11/06 03:24:01;;;;;;;15.55;5.50;;;;;;;7.59;88.07;101077.88;5085198;28;20097;-63
2022/11/06 03:26:34;;;;;;;17.85;5.10;;;;;;;7.64;88.38;101075.66;5088096;28;20040;-63
2022/11/06 03:29:09;;;;;;;19.00;5.40;;;;;;;7.65;88.45;101095.84;5071376;28;20048;-63
2022/11/06 03:31:45;;;;;;;19.55;5.45;;;;;;;7.56;88.49;101089.50;5070732;28;20409;-63
2022/11/06 03:34:20;;;;;;;13.05;4.82;;;;;;;7.63;88.17;101095.97;5074696;28;20401;-63
2022/11/06 03:36:55;;;;;;;18.20;5.85;;;;;;;7.53;88.62;101104.78;5086616;28;20040;-63
2022/11/06 03:39:29;;;;;;;14.18;5.03;;;;;;;7.62;88.73;101096.09;4935958;28;21106;-61
2022/11/06 03:42:03;;;;;;;20.58;6.00;;;;;;;7.55;88.52;101101.06;5070744;28;20052;-61
2022/11/06 03:44:35;;;;;;;22.30;6.13;;;;;;;7.59;88.86;101102.47;5075764;28;20048;-61
2022/11/06 03:47:11;;;;;;;17.98;5.30;;;;;;;7.60;88.35;101105.94;5066282;28;20131;-61
2022/11/06 03:49:44;;;;;;;19.63;5.35;;;;;;;7.61;88.78;101108.47;5078130;28;20055;-61
2022/11/06 03:52:16;;;;;;;20.33;5.70;;;;;;;7.63;88.86;101106.53;5089937;28;20048;-61
2022/11/06 03:54:51;;;;;;;16.45;5.40;;;;;;;7.50;89.25;101113.78;5094487;28;20047;-61
2022/11/06 03:57:24;;;;;;;15.70;5.53;;;;;;;7.52;88.55;101105.75;5090819;28;20123;-61
2022/11/06 03:59:56;;;;;;;15.70;5.05;;;;;;;7.57;89.32;101103.56;5095341;28;20048;-61
2022/11/06 04:02:26;;;;;;;13.05;4.72;;;;;;;7.60;88.83;101100.66;5090792;28;20562;-61
2022/11/06 04:04:59;;;;;;;14.75;5.20;;;;;;;7.55;89.10;101087.84;5091346;28;20070;-61
2022/11/06 04:07:30;;;;;;;20.08;5.55;;;;;;;7.60;88.58;101084.81;5094865;28;20444;-61
2022/11/06 04:15:48;;;;;;;15.68;5.00;;;;;;;7.52;89.49;101088.09;5093884;28;20486;-61
2022/11/06 04:18:18;;;;;;;17.88;5.15;;;;;;;7.44;89.12;101079.94;5089167;28;20036;-61
2022/11/06 04:21:25;;;;;;;15.33;4.87;;;;;;;7.30;89.83;101076.66;5091719;28;20149;-61
2022/11/06 04:26:56;;;;;;;15.02;5.10;;;;;;;7.42;89.56;101068.69;5090581;28;20036;-61
2022/11/06 04:29:53;;;;;;;19.95;6.25;;;;;;;7.40;90.13;101066.16;5094406;28;20119;-61
2022/11/06 04:32:51;;;;;;;26.75;5.13;;;;;;;7.43;89.48;101071.19;5090292;28;20469;-61
2022/11/06 04:39:01;;;;;;;18.45;4.93;;;;;;;7.34;90.39;101063.22;5107202;27;20387;-62
2022/11/06 04:41:57;;;;;;;15.95;4.65;;;;;;;7.39;89.80;101058.41;5045883;28;20087;-62
2022/11/06 04:44:30;;;;;;;15.85;4.63;;;;;;;7.33;90.30;101056.25;5090019;28;20114;-62
2022/11/06 04:47:00;;;;;;;13.07;4.28;;;;;;;7.38;90.18;101051.44;5108793;28;20461;-62
2022/11/06 04:49:31;;;;;;;14.48;4.88;;;;;;;7.42;89.88;101047.56;5109386;28;20048;-61
2022/11/06 04:52:00;;;;;;;20.05;4.72;;;;;;;7.41;89.58;101038.81;5108428;28;20036;-61
2022/11/06 04:54:27;;;;;;;17.67;4.47;;;;;;;7.39;90.40;101029.38;5104402;28;20067;-63
2022/11/06 04:57:02;;;;;;;13.45;4.75;;;;;;;7.37;90.52;101031.25;5110422;28;20104;-63
2022/11/06 04:59:33;;;;;;;16.95;4.72;;;;;;;7.35;90.33;101031.41;5105856;28;20836;-63
2022/11/06 05:02:01;;;;;;;14.93;4.85;;;;;;;7.41;90.33;101017.69;5110334;28;20040;-62
2022/11/06 05:04:28;;;;;;;13.02;4.57;;;;;;;7.41;90.45;101011.59;5105529;28;20047;-62
2022/11/06 05:06:54;;;;;;;13.65;4.50;;;;;;;7.32;91.02;101004.44;5110547;28;20043;-62
2022/11/06 05:09:21;;;;;;;17.60;5.35;;;;;;;7.33;91.00;100995.53;5100911;28;20051;-62
2022/11/06 05:11:48;;;;;;;22.45;5.28;;;;;;;7.26;91.33;100998.69;5109299;28;20097;-63
2022/11/06 05:14:15;;;;;;;15.98;4.30;;;;;;;7.33;91.46;100998.19;5104623;28;20182;-62
2022/11/06 05:16:42;;;;;;;18.70;5.30;;;;;;;7.30;91.33;100994.84;5110190;28;20532;-62
2022/11/06 05:19:08;;;;;;;21.40;4.07;;;;;;;7.29;91.12;100990.53;5105238;28;20491;-62
2022/11/06 05:24:22;;;;;;;12.70;4.18;;;;;;;7.32;90.91;100980.69;5105441;28;20044;-63
2022/11/06 05:26:49;;;;;;;20.55;4.72;;;;;;;7.36;90.65;100985.56;5106778;28;20093;-63
2022/11/06 05:29:17;;;;;;;24.65;4.75;;;;;;;7.35;90.83;100973.34;5110184;28;20420;-63
2022/11/06 05:31:44;;;;;;;18.13;4.35;;;;;;;7.36;90.79;100976.81;5103639;28;20091;-62
2022/11/06 05:34:11;;;;;;;17.85;4.55;;;;;;;7.34;90.84;100979.59;5108925;28;20068;-63
2022/11/06 05:36:37;;;;;;;22.38;4.40;;;;;;;7.39;91.22;100973.94;5105110;28;20090;-62
2022/11/06 05:39:07;;;;;;;15.65;4.38;;;;;;;7.40;90.74;100975.59;5028484;28;20658;-60
2022/11/06 05:41:33;;;;;;;18.52;4.47;;;;;;;7.40;90.62;100972.97;5053292;28;20126;-62
2022/11/06 05:44:00;;;;;;;12.88;4.00;;;;;;;7.35;91.11;100981.28;5106379;28;20487;-63
2022/11/06 05:46:27;;;;;;;15.02;4.47;;;;;;;7.37;91.38;100973.19;5109398;28;20101;-63
2022/11/06 05:49:13;;;;;;;14.85;4.20;;;;;;;7.35;90.95;100972.50;5093987;28;20044;-62
2022/11/06 05:51:40;;;;;;;11.38;4.30;;;;;;;7.40;91.19;100965.88;5096094;28;20101;-63
2022/11/06 05:54:06;;;;;;;23.75;4.50;;;;;;;7.41;90.83;100954.34;5091139;28;20040;-62
2022/11/06 05:56:33;;;;;;;12.13;4.05;;;;;;;7.47;90.84;100971.47;5095877;28;20044;-62
2022/11/06 05:59:00;;;;;;;20.42;5.55;;;;;;;7.38;91.01;100956.41;5087966;28;20044;-63
2022/11/06 06:01:26;;;;;;;19.33;4.53;;;;;;;7.35;90.90;100951.38;5111232;28;20040;-63
2022/11/06 06:03:54;;;;;;;13.52;3.95;;;;;;;7.35;91.04;100952.25;5090913;28;20044;-63
2022/11/06 06:06:21;;;;;;;13.02;4.45;;;;;;;7.30;90.57;100957.88;5094302;28;20123;-62
2022/11/06 06:08:48;;;;;;;17.42;4.30;;;;;;;7.18;91.07;100955.44;5090654;28;20044;-62
2022/11/06 06:11:14;;;;;;;21.00;4.72;;;;;;;7.21;91.40;100947.28;5095265;28;20040;-63
2022/11/06 06:13:41;;;;;;;10.50;4.15;;;;;;;7.29;91.74;100947.47;5091010;28;20048;-63
2022/11/06 06:16:08;;;;;;;13.98;4.13;;;;;;;7.28;91.52;100941.34;5092126;28;20489;-63
2022/11/06 06:18:34;;;;;;;15.57;4.45;;;;;;;7.33;91.46;100938.34;5076968;28;20032;-62
2022/11/06 06:21:01;;;;;;;15.15;4.50;;;;;;;7.42;91.26;100936.72;5090785;28;20093;-63
2022/11/06 06:23:28;;;;;;;18.27;4.78;;;;;;;7.29;91.47;100936.91;5095115;28;20052;-62
2022/11/06 06:25:56;;;;;;;18.27;4.47;;;;;;;7.34;90.97;100926.81;5091061;28;20130;-62
2022/11/06 06:28:22;;;;;;;17.60;4.65;;;;;;;7.34;90.73;100915.41;5093537;28;20044;-63
2022/11/06 06:30:49;;;;;;;15.18;4.47;;;;;;;7.35;91.13;100923.22;5087535;28;20100;-63
2022/11/06 06:33:16;;;;;;;18.27;4.25;;;;;;;7.43;90.87;100920.75;5094915;28;20044;-63
2022/11/06 06:35:42;;;;;;;16.10;4.25;;;;;;;7.45;90.36;100928.53;5095280;28;20485;-62
2022/11/06 06:38:09;;;;;;;12.80;4.45;;;;;;;7.46;90.54;100938.16;5089238;28;20401;-63
2022/11/06 06:40:36;;;;;;;18.55;4.55;;;;;;;7.35;91.12;100943.47;4975269;28;20040;-61
2022/11/06 06:43:03;;;;;;;12.02;3.92;;;;;;;7.34;90.76;100945.28;5089311;28;20131;-61
2022/11/06 06:45:30;;;;;;;15.57;4.32;;;;;;;7.36;91.43;100939.88;5094627;28;20105;-62
2022/11/06 06:48:06;;;;;;;13.57;4.57;;;;;;;7.44;90.53;100938.28;5085745;28;20524;-62
2022/11/06 06:50:32;;;;;;;18.70;4.90;;;;;;;7.50;90.85;100958.88;5093402;28;20047;-61
2022/11/06 06:52:59;;;;;;;13.50;4.53;;;;;;;7.47;90.57;100953.84;5091380;28;20481;-62
2022/11/06 06:55:26;;;;;;;16.45;4.22;;;;;;;7.53;90.10;100949.88;5092433;28;20044;-62
2022/11/06 06:57:56;;;;;;;15.15;4.35;;;;;;;7.60;89.81;100953.63;5075774;28;20040;-62
2022/11/06 07:00:22;;;;;;;15.50;4.43;;;;;;;7.56;90.07;100954.03;5091407;28;20064;-62
2022/11/06 07:02:50;;;;;;;12.68;4.38;;;;;;;7.53;89.69;100954.28;5094094;28;20444;-61
2022/11/06 07:05:16;;;;;;;20.70;4.65;;;;;;;7.60;89.44;100953.63;5085540;28;20056;-61
2022/11/06 07:07:43;;;;;;;14.77;4.13;;;;;;;7.63;89.97;100957.84;5093488;28;20123;-61
2022/11/06 07:10:10;;;;;;;11.23;4.00;;;;;;;7.53;90.23;100962.22;5087421;28;20090;-61
2022/11/06 07:12:38;;;;;;;20.85;4.55;;;;;;;7.52;90.71;100957.91;5093946;28;20089;-63
2022/11/06 07:15:05;;;;;;;18.55;4.57;;;;;;;7.57;90.27;100951.28;5089609;28;20044;-61
2022/11/06 07:17:32;;;;;;;19.60;4.25;;;;;;;7.58;90.09;100957.38;5093900;28;20040;-61
2022/11/06 07:19:59;;;;;;;16.75;4.50;;;;;;;7.67;89.94;100956.59;5086257;28;20386;-61
2022/11/06 07:22:26;;;;;;;11.93;4.07;;;;;;;7.64;89.37;100956.84;5094212;28;20558;-61
2022/11/06 07:24:56;;;;;;;14.00;4.43;;;;;;;7.71;89.20;100959.81;5092455;28;20051;-61
2022/11/06 07:27:23;;;;;;;13.27;4.30;;;;;;;7.76;89.03;100960.28;5090286;28;20123;-61
2022/11/06 07:29:50;;;;;;;15.98;4.20;;;;;;;7.92;88.30;100967.75;5075687;28;20051;-62
2022/11/06 07:32:16;;;;;;;12.20;4.30;;;;;;;7.97;88.27;100962.91;5088979;28;20066;-61
2022/11/06 07:34:43;;;;;;;18.17;4.40;;;;;;;8.10;87.95;100957.41;5094312;28;20052;-61
2022/11/06 07:37:10;;;;;;;16.08;4.20;;;;;;;8.20;86.59;100952.97;5067331;28;20105;-61
2022/11/06 07:39:37;;;;;;;13.38;3.80;;;;;;;8.15;87.25;100957.81;4970590;28;20047;-61
2022/11/06 07:42:04;;;;;;;13.77;4.30;;;;;;;8.17;87.02;100951.44;5089135;28;20489;-64
2022/11/06 07:44:35;;;;;;;14.98;4.20;;;;;;;8.28;86.86;100950.50;5093762;28;20036;-61
2022/11/06 07:47:01;;;;;;;14.50;4.22;;;;;;;8.35;85.60;100959.56;5087395;28;20032;-62
2022/11/06 07:49:28;;;;;;;15.13;4.30;;;;;;;8.43;86.06;100957.13;5093332;28;20044;-62
2022/11/06 07:51:55;;;;;;;15.20;4.10;;;;;;;8.55;85.52;100954.34;5088190;28;20043;-62
2022/11/06 07:54:21;;;;;;;14.38;4.30;;;;;;;8.60;84.80;100947.72;5090055;28;20482;-62
2022/11/06 07:56:48;;;;;;;21.10;5.20;;;;;;;8.71;84.36;100944.09;5093575;28;20072;-61
2022/11/06 07:59:15;;;;;;;15.20;4.18;;;;;;;9.03;82.83;100946.50;5087657;28;20094;-63
2022/11/06 08:01:41;;;;;;;20.42;4.82;;;;;;;9.18;82.17;100948.72;5092141;28;20513;-62
2022/11/06 08:04:10;;;;;;;15.73;3.88;;;;;;;9.23;82.19;100944.66;5070550;28;20444;-63
2022/11/06 08:06:37;;;;;;;12.27;4.18;;;;;;;9.47;80.89;100939.91;5093227;28;20036;-62
2022/11/06 08:09:06;;;;;;;16.40;4.20;;;;;;;9.29;81.63;100939.81;5088960;28;20093;-61
2022/11/06 08:11:33;;;;;;;12.05;3.50;;;;;;;9.00;82.54;100938.84;5089906;28;20040;-62
2022/11/06 08:14:00;;;;;;;18.35;3.90;;;;;;;8.73;84.26;100936.88;5093271;28;20114;-61
2022/11/06 08:16:27;;;;;;;15.45;4.32;;;;;;;8.58;85.09;100933.75;5088734;28;20047;-61
2022/11/06 08:18:54;;;;;;;15.90;4.22;;;;;;;8.62;85.21;100937.84;5092954;28;20512;-61
2022/11/06 08:21:21;;;;;;;18.15;3.95;;;;;;;8.65;85.47;100936.72;5086994;28;20505;-62
2022/11/06 08:23:48;;;;;;;19.60;4.15;;;;;;;8.68;85.37;100933.81;5075182;28;20062;-61
2022/11/06 08:26:15;;;;;;;17.38;4.50;;;;;;;8.81;85.20;100937.00;5088478;28;20127;-62
2022/11/06 08:28:42;;;;;;;14.70;4.28;;;;;;;8.95;85.22;100935.78;5089773;28;20081;-62
2022/11/06 08:31:09;;;;;;;14.27;4.30;;;;;;;9.02;84.28;100938.69;5043158;28;20048;-61
2022/11/06 08:33:37;;;;;;;15.57;4.30;;;;;;;9.21;83.97;100932.56;5088349;28;20044;-62
2022/11/06 08:36:06;;;;;;;13.82;4.57;;;;;;;9.35;83.33;100936.56;5092867;28;20400;-62
2022/11/06 08:38:33;;;;;;;16.08;4.05;;;;;;;9.37;83.16;100916.13;5087119;28;20090;-61
2022/11/06 08:41:09;;;;;;;19.52;4.18;;;;;;;9.53;83.00;100915.50;4957260;28;20055;-62
2022/11/06 08:43:37;;;;;;;14.85;3.78;;;;;;;9.68;82.37;100913.22;5094712;28;20044;-62
2022/11/06 08:46:05;;;;;;;18.20;4.20;;;;;;;9.64;82.13;100918.00;5091112;28;20086;-62
2022/11/06 08:48:33;;;;;;;21.65;4.47;;;;;;;9.74;81.96;100907.38;5077691;28;20052;-62
2022/11/06 08:51:00;;;;;;;13.25;4.22;;;;;;;9.87;80.87;100907.06;5093748;28;20048;-62
2022/11/06 08:53:26;;;;;;;23.25;4.25;;;;;;;9.75;81.71;100891.34;5087299;28;20036;-62
2022/11/06 08:55:53;;;;;;;15.50;4.65;;;;;;;9.79;81.25;100899.84;5092486;28;20039;-62
2022/11/06 08:58:20;;;;;;;15.13;4.53;;;;;;;9.82;81.97;100893.41;5088301;28;20494;-62
2022/11/06 09:00:46;;;;;;;15.95;4.38;;;;;;;9.88;80.52;100893.66;5087710;28;20121;-62
2022/11/06 09:03:16;;;;;;;19.40;4.70;;;;;;;9.98;81.34;100889.13;5092268;28;20040;-61
2022/11/06 09:05:43;;;;;;;16.65;4.30;;;;;;;10.03;80.67;100885.22;5087734;28;20048;-61
2022/11/06 09:08:12;;;;;;;15.93;4.97;;;;;;;10.10;80.12;100887.13;5091575;28;20044;-62
2022/11/06 09:10:40;;;;;;;16.02;4.38;;;;;;;10.24;80.50;100884.97;5088192;28;20444;-63
2022/11/06 09:13:08;;;;;;;14.55;4.70;;;;;;;10.29;79.96;100870.28;5092425;28;20048;-62
2022/11/06 09:15:35;;;;;;;17.33;4.20;;;;;;;10.46;79.12;100868.69;5074136;28;20037;-62
2022/11/06 09:18:02;;;;;;;16.15;4.47;;;;;;;10.56;78.60;100866.78;5089251;28;20043;-62
2022/11/06 09:20:29;;;;;;;19.90;4.50;;;;;;;10.65;78.05;100866.88;5082683;28;20799;-62
2022/11/06 09:23:05;;;;;;;17.13;4.30;;;;;;;10.60;78.22;100866.47;5090086;28;20044;-61
2022/11/06 09:25:32;;;;;;;16.58;5.07;;;;;;;10.65;77.67;100849.13;5071621;28;20526;-61
2022/11/06 09:27:59;;;;;;;16.23;4.22;;;;;;;10.68;78.27;100850.66;5058540;28;20090;-61
2022/11/06 09:30:28;;;;;;;13.45;4.72;;;;;;;10.67;78.34;100847.16;5070383;28;20303;-62
2022/11/06 09:32:58;;;;;;;17.00;4.68;;;;;;;10.88;77.51;100838.06;5071265;28;20044;-62
2022/11/06 09:35:27;;;;;;;11.82;4.20;;;;;;;10.88;76.84;100832.75;5074641;28;20152;-62
2022/11/06 09:37:53;;;;;;;12.27;4.25;;;;;;;10.72;76.68;100830.78;5069945;28;20051;-62
2022/11/06 09:40:29;;;;;;;12.55;4.10;;;;;;;10.68;77.75;100834.75;4948755;28;20041;-60
2022/11/06 09:43:21;;;;;;;19.50;4.60;;;;;;;10.83;76.89;100824.41;5071114;28;20450;-63
2022/11/06 09:46:11;;;;;;;10.13;3.80;;;;;;;10.68;77.37;100832.09;5073485;28;20168;-63
2022/11/06 09:48:43;;;;;;;20.47;4.77;;;;;;;10.65;77.79;100830.56;5055724;28;20037;-62
2022/11/06 09:51:35;;;;;;;15.38;4.55;;;;;;;10.78;76.78;100819.56;5089770;28;20055;-63
2022/11/06 09:54:06;;;;;;;;;;;;;;;10.87;76.79;100817.81;5073840;28;20464;-63
2022/11/06 09:56:37;;;;;;;18.70;4.60;;;;;;;10.93;76.78;100811.88;5095915;28;20286;-63
2022/11/06 09:59:09;;;;;;;14.98;4.32;;;;;;;10.96;76.84;100814.22;5091094;28;20044;-63
2022/11/06 10:01:42;;;;;;;14.52;3.83;;;;;;;11.10;76.36;100816.31;5094490;28;20048;-63
2022/11/06 10:04:41;;;;;;;16.55;4.05;;;;;;;11.22;76.29;100811.56;5086523;28;20059;-63
2022/11/06 10:07:23;;;;;;;26.98;7.43;;;;;;;11.43;74.86;100819.16;5095543;28;20044;-62
2022/11/06 10:09:50;;;;;;;22.42;5.43;;;;;;;11.65;74.02;100807.16;5089853;28;20044;-63
2022/11/06 10:12:31;;;;;;;12.52;4.30;;;;;;;11.64;73.72;100804.66;5095477;28;20072;-63
2022/11/06 10:15:18;;;;;;;12.80;4.18;;;;;;;11.69;72.95;100800.53;5091019;28;20508;-63
2022/11/06 10:18:25;;;;;;;14.63;4.20;;;;;;;11.79;72.39;100795.09;5095401;28;20042;-63
2022/11/06 10:20:56;;;;;;;18.38;4.00;;;;;;;11.88;72.58;100783.50;5090355;28;20051;-63
2022/11/06 10:23:41;;;;;;;15.40;4.35;;;;;;;11.80;72.22;100780.78;5095577;28;20108;-63
2022/11/06 10:26:20;;;;;;;13.32;4.07;;;;;;;11.99;71.25;100779.75;5073252;28;20044;-63
2022/11/06 10:29:27;;;;;;;17.05;3.95;;;;;;;11.91;71.89;100779.69;5075120;28;20051;-63
2022/11/06 10:32:03;;;;;;;18.65;4.00;;;;;;;11.83;71.41;100779.66;5074645;28;20131;-63
2022/11/06 10:34:43;;;;;;;12.50;4.00;;;;;;;11.66;72.39;100782.25;5070359;28;20127;-63
2022/11/06 10:37:22;;;;;;;13.88;3.90;;;;;;;11.68;71.57;100774.13;5071256;28;20140;-62
2022/11/06 10:39:49;;;;;;;14.60;3.70;;;;;;;11.62;71.36;100775.56;4955061;28;20485;-61
2022/11/06 10:42:19;;;;;;;17.23;3.83;;;;;;;12.08;70.63;100768.13;5069080;28;20044;-60
2022/11/06 10:44:54;;;;;;;12.77;3.80;;;;;;;12.45;69.26;100750.88;5073146;28;20102;-61
2022/11/06 10:47:26;;;;;;;13.20;3.83;;;;;;;12.50;69.27;100755.69;5069777;28;20401;-60
2022/11/06 10:49:56;;;;;;;14.35;3.85;;;;;;;12.18;69.08;100753.84;5079226;28;20043;-63
2022/11/06 10:52:49;;;;;;;17.17;3.35;;;;;;;11.89;69.73;100745.28;5089126;28;20509;-61
2022/11/06 10:55:55;;;;;;;14.07;4.03;;;;;;;11.96;70.40;100742.84;5094395;28;20573;-63
2022/11/06 10:58:27;;;;;;;13.27;3.45;;;;;;;11.89;70.88;100733.81;5089854;28;20256;-60
2022/11/06 11:01:00;;;;;;;12.95;4.00;;;;;;;11.74;70.43;100736.28;5094674;28;20078;-61
2022/11/06 11:06:06;;;;;;;20.48;3.83;;;;;;;11.61;70.24;100730.59;5110175;27;20383;-61
2022/11/06 11:08:39;;;;;;;15.32;4.55;;;;;;;11.60;71.40;100716.47;5085900;28;20040;-62
2022/11/06 11:11:17;;;;;;;14.32;4.30;;;;;;;11.43;70.97;100712.09;5090350;28;20123;-62
2022/11/06 11:14:02;;;;;;;12.98;4.10;;;;;;;11.32;71.70;100700.75;5089133;28;20059;-63
2022/11/06 11:16:33;;;;;;;19.75;4.05;;;;;;;11.31;72.24;100698.25;5089268;28;20504;-62
2022/11/06 11:19:23;;;;;;;15.32;3.90;;;;;;;11.33;71.78;100690.97;5086199;28;20054;-62
2022/11/06 11:21:56;;;;;;;11.90;3.72;;;;;;;11.28;72.81;100694.09;5090430;28;20052;-62
2022/11/06 11:24:24;;;;;;;13.48;3.75;;;;;;;11.07;72.91;100686.53;5085670;28;20533;-62
2022/11/06 11:26:55;;;;;;;14.43;3.78;;;;;;;11.08;73.03;100695.34;5085880;28;20086;-62
2022/11/06 11:29:28;;;;;;;11.90;3.72;;;;;;;11.10;73.06;100690.72;5088689;28;20557;-62
2022/11/06 11:32:00;;;;;;;16.10;4.30;;;;;;;11.06;72.95;100689.34;5084914;28;20040;-63
2022/11/06 11:34:31;;;;;;;12.38;4.07;;;;;;;11.31;72.45;100682.31;5088752;28;20043;-62
2022/11/06 11:37:01;;;;;;;10.98;4.20;;;;;;;12.03;69.83;100681.88;5084069;28;20445;-62
2022/11/06 11:39:35;;;;;;;13.63;4.43;;;;;;;13.73;63.89;100682.63;4970589;28;21075;-62
2022/11/06 11:42:27;;;;;;;16.15;4.20;;;;;;;13.80;61.81;100676.41;5081685;28;20119;-62
2022/11/06 11:47:48;;;;;;;13.15;3.67;;;;;;;13.72;61.43;100657.81;5085568;28;20378;-61
2022/11/06 11:52:58;;;;;;;12.45;3.72;;;;;;;13.54;61.22;100646.59;5106106;27;20351;-61
2022/11/06 11:55:27;;;;;;;14.18;3.72;;;;;;;13.64;62.09;100625.84;5105072;28;20438;-63
2022/11/06 11:57:58;;;;;;;15.10;4.53;;;;;;;13.39;62.16;100620.69;5087931;28;20045;-62
2022/11/06 12:00:26;;;;;;;12.35;4.05;;;;;;;13.66;61.11;100605.22;5089610;28;20059;-62
2022/11/06 12:05:37;;;;;;;13.95;3.50;;;;;;;13.76;60.97;100597.78;5088641;27;20711;-62
2022/11/06 12:08:06;;;;;;;14.98;3.60;;;;;;;14.15;60.27;100593.28;5087414;28;20075;-61
2022/11/06 12:10:39;;;;;;;14.07;3.80;;;;;;;13.67;59.57;100582.03;5090539;28;20039;-61
2022/11/06 12:13:15;;;;;;;18.95;3.65;;;;;;;13.50;60.64;100571.50;5086759;28;20167;-61
2022/11/06 12:15:53;;;;;;;12.88;4.10;;;;;;;13.39;61.88;100574.56;5086936;28;20048;-62
2022/11/06 12:18:24;;;;;;;12.02;3.67;;;;;;;13.30;62.03;100565.78;5090596;28;20048;-61